SLTR

Details ICAO SLTR (TDD)
Name TTE AV JORGE HENRICH ARAUZ
Region Bolivia
Timezone America/La_Paz (UTC-4.0)
Plans Departing 11
Arriving 10
Stats Elevation 509 ft / 155 m (AMSL)
Location -14.818737° -64.918019°
Runways 1
Magnetic Variation 11.178° W
Sunrise 2018-05-22 10:36:41 UTC / 2018-05-22 06:36:41 Local
Sunset 2018-05-22 21:58:53 UTC / 2018-05-22 17:58:53 Local
Advertisement - Login to hide

Runways

ID Width Length Bearing (true) Bearing (mag) Surface Threshold Offset Overrun Length
14 98 ft / 30 m 7,895 ft / 2,407 m 135.05° 146.23° Asphalt 0 ft / 0 m 0 ft / 0 m
32 98 ft / 30 m 7,895 ft / 2,407 m 315.05° 326.23° Asphalt 0 ft / 0 m 0 ft / 0 m

Map

Weather


0- 5 10 15 20 25 30 35+ Temperature / ° C

Clouds and Precipitation
Forecast for 2018-05-22 12:00 UTC. Updated 3 hours ago

Ground ~20,000 ft ~40,000 ft Winds

METAR

SLTR 221400Z 14008KT 9999 NSC 25/17 Q1018

TAF

Not found

Frequencies

Ground 121.90 MHz TRINIDAD GND
Approach 119.10 MHz TRINIDAD APP
Tower 118.50 MHz TRINIDAD TWR
Warning: Do not use this data for real-world aviation or navigation. No guarantee of current accuracy is given.